Ambulong, Philippines

4:25 AM +08 on March 28, 2017 (GMT +0800)
Prosperity | | Change Station

Elev 367 ft 14.20 °N, 121.09 °E | Updated 9 seconds ago

Mostly Cloudy
Mostly Cloudy
75.0 °F
Feels Like 75 °F
N
5.1
Wind Variable Wind from SE
Gusts 7.4 mph

Today
High -- | Low -- °F
--% Chance of Precip.
Yesterday
High -- | Low -- °F
Precip. -- in
Pressure 29.95 in
Visibility 6.2 miles
Clouds Scattered Clouds 2500 ft
Mostly Cloudy 10000 ft
Heat Index 75 °F
Dew Point 69 °F
Humidity 81%
Rainfall 0.17 in
Snow Depth Not available.
5:54 AM 6:07 PM
Waning Crescent, 0% visible
METAR RPLL 272000Z 10005KT 060V170 9999 SCT025 BKN100 27/23 Q1014 NOSIG RMK A2994
Pressure 29.95 in
Visibility 6.2 miles
Clouds Scattered Clouds 2500 ft
Mostly Cloudy 10000 ft
Heat Index 75 °F
Dew Point 69 °F
Humidity 81%
Rainfall 0.17 in
Snow Depth Not available.
5:54 AM 6:07 PM
Waning Crescent, 0% visible
METAR RPLL 272000Z 10005KT 060V170 9999 SCT025 BKN100 27/23 Q1014 NOSIG RMK A2994

Get Severe Weather Alerts

Thanks for signing up!

Be on the lookout for a verification email in your inbox.

You'll start receiving the daily forecast at 8 AM.

×

10-Day Weather Forecast

No radar image for this location.
×

Almanac

Astronomy

Mar. 28, 2017 Rise Set
Actual Time
Civil Twilight
Nautical Twilight
Astronomical Twilight
Moon
Length of Visible Light
Length of Day
Tomorrow will be .
, % of the Moon is Illuminated

Today's Extremes

Country Highs Country Lows

Community

WunderPhotos

Upload Photos

1,962,540 photos uploaded!

WunderBlog® & News

Nearby

Air Quality

  Air Quality AQ Index Pollutant
Not available.

Snow Depth

Station Depth Elevation

Earthquake Activity

City Distance Mag. Time & Date
Minimum magnitude displayed is 2.5.

Earthquake Activity

City Distance Mag. Time & Date
Minimum magnitude displayed is 2.5.

Coastal Water Temperatures

Place Temperature

Stations

Nearby Weather Stations

Station Location Temp. Windchill Dew Point Humidity Wind Precip. Elev Updated Type